Main page
METAR-TAF:

METAR-TAF

Airports :

RAF Topcliffe

Topcliffe, England

latitude: 54-12N, longitude: 001-23W, elevation: 28 m

Current weather observation

The report was made 30 minutes ago, at 20:50 UTC
Wind 6 kt from the East/Southeast
Temperature 11°C
Humidity 100%
Pressure 993 hPa
Visibility 10 km or more
rain

METAR: EGXZ 202050Z AUTO 12006KT 9999 RA BKN003/// 11/11 Q0993

Time: 22:20 (21:20 UTC)

Forecast

The report was made 11 hours and 32 minutes ago, at 09:48 UTC
Forecast valid from 20 at 09 UTC to 20 at 15 UTC
Wind 9 kt from the South/Southwest
Visibility 10 km or more
Few clouds at a height of 1500 ft
Probability 30% :
Temporary
from 20 at 09 UTC to 20 at 13 UTC
Scattered clouds at a height of 1500 ft
Temporary
from 20 at 13 UTC to 20 at 15 UTC
Visibility: 4000 m
Broken clouds at a height of 600 ft
rain

TAF: EGXZ 200948Z 2009/2015 20009KT 9999 FEW015 PROB30 TEMPO 2009/2013 SCT015 TEMPO 2013/2015 4000 RA BKN006

Weather observations and forecasts of more than 4000 airports (METAR and TAF reports).

The available stations are represented by yellow and red dots on the map.

Hover mouse over dot to see the name of the station.

Then click to see weather observations and forecasts.

To change the map : click on the green buttons with a black cross to zoom in, on the green button with a dash to zoom out, or on the green arrows for adjacent maps.


METAR-TAF: